Time;durP1;ratioP1;P1;durP2;ratioP2;P2;SDS_P1;SDS_P2;PMS_P1;PMS_P2;Temp;Humidity;BMP_temperature;BMP_pressure;BME280_temperature;BME280_humidity;BME280_pressure;Samples;Min_cycle;Max_cycle;Signal;HPM_P1;HPM_P2
2022/12/20 00:01:30;;;;;;;29.15;6.03;;;;;;;6.65;100.00;98502.97;5024752;28;20045;-83
2022/12/20 00:03:58;;;;;;;33.58;4.70;;;;;;;6.63;100.00;98492.66;5026387;28;20510;-83
2022/12/20 00:06:25;;;;;;;23.60;3.85;;;;;;;6.64;100.00;98499.53;5028194;28;20040;-84
2022/12/20 00:08:59;;;;;;;23.10;4.53;;;;;;;6.68;100.00;98500.84;5027650;28;20038;-83
2022/12/20 00:11:26;;;;;;;29.55;5.45;;;;;;;6.67;100.00;98498.41;5019607;28;20117;-83
2022/12/20 00:13:52;;;;;;;23.73;3.40;;;;;;;6.67;100.00;98503.66;5039168;28;20061;-85
2022/12/20 00:16:23;;;;;;;25.70;4.03;;;;;;;6.72;100.00;98505.78;5016512;28;20112;-83
2022/12/20 00:18:55;;;;;;;24.67;4.38;;;;;;;6.71;100.00;98507.56;5020992;28;20037;-83
2022/12/20 00:21:21;;;;;;;30.35;4.53;;;;;;;6.72;100.00;98506.56;5037477;28;20040;-83
2022/12/20 00:23:48;;;;;;;38.95;5.07;;;;;;;6.74;100.00;98509.84;4996218;28;20040;-83
2022/12/20 00:26:16;;;;;;;23.55;3.85;;;;;;;6.80;100.00;98509.19;5041752;28;20108;-83
2022/12/20 00:28:44;;;;;;;25.17;3.28;;;;;;;6.82;100.00;98511.63;5025874;28;20037;-83
2022/12/20 00:31:14;;;;;;;25.70;4.47;;;;;;;6.83;100.00;98514.09;5028049;28;20056;-83
2022/12/20 00:33:40;;;;;;;20.80;4.18;;;;;;;6.85;100.00;98511.31;5024162;28;20129;-83
2022/12/20 00:36:07;;;;;;;31.13;3.92;;;;;;;6.86;100.00;98512.13;5025273;28;20022;-83
2022/12/20 00:38:34;;;;;;;23.33;5.53;;;;;;;6.89;100.00;98515.25;5005984;28;20037;-83
2022/12/20 00:41:05;;;;;;;31.08;4.50;;;;;;;6.92;100.00;98514.09;5018811;28;20038;-83
2022/12/20 00:43:32;;;;;;;32.13;3.88;;;;;;;6.89;100.00;98517.03;5010010;28;20499;-83
2022/12/20 00:45:59;;;;;;;23.90;3.60;;;;;;;6.88;100.00;98518.84;5026458;28;20036;-83
2022/12/20 00:48:25;;;;;;;27.73;3.97;;;;;;;6.86;100.00;98514.75;5036268;28;20061;-83
2022/12/20 00:50:51;;;;;;;29.55;4.07;;;;;;;6.82;100.00;98506.38;5025872;28;20037;-82
2022/12/20 00:53:18;;;;;;;28.90;4.25;;;;;;;6.81;100.00;98502.13;5024349;28;20113;-83
2022/12/20 00:55:45;;;;;;;25.73;4.05;;;;;;;6.81;100.00;98507.38;5025770;28;20124;-83
2022/12/20 00:58:12;;;;;;;28.20;3.63;;;;;;;6.78;100.00;98497.22;5017503;28;20520;-83
2022/12/20 01:00:38;;;;;;;31.25;4.18;;;;;;;6.73;100.00;98499.53;5026287;28;20075;-83
2022/12/20 01:03:05;;;;;;;22.83;3.88;;;;;;;6.69;100.00;98499.84;5027675;28;20057;-83
2022/12/20 01:05:31;;;;;;;32.20;4.10;;;;;;;6.64;100.00;98498.72;5032418;28;20029;-83
2022/12/20 01:07:57;;;;;;;26.35;4.13;;;;;;;6.61;100.00;98505.13;5030761;28;20091;-83
2022/12/20 01:10:24;;;;;;;27.88;5.20;;;;;;;6.58;100.00;98503.66;5029125;28;20040;-83
2022/12/20 01:12:50;;;;;;;28.60;3.47;;;;;;;6.54;100.00;98510.22;5027083;28;20038;-82
2022/12/20 01:15:16;;;;;;;25.30;3.40;;;;;;;6.53;100.00;98498.06;5039533;28;20474;-83
2022/12/20 01:17:42;;;;;;;23.48;3.95;;;;;;;6.50;100.00;98508.91;5029870;28;20034;-83
2022/12/20 01:20:08;;;;;;;36.92;4.10;;;;;;;6.47;100.00;98509.25;5043275;28;20068;-83
2022/12/20 01:22:34;;;;;;;23.27;4.35;;;;;;;6.46;100.00;98510.25;4990579;28;20044;-83
2022/12/20 01:25:00;;;;;;;27.25;3.80;;;;;;;6.44;100.00;98502.53;5030535;28;20482;-83
2022/12/20 01:27:27;;;;;;;23.63;3.55;;;;;;;6.43;100.00;98503.50;5033939;28;20084;-83
2022/12/20 01:29:53;;;;;;;30.13;3.60;;;;;;;6.41;100.00;98510.72;5041208;28;20807;-83
2022/12/20 01:32:19;;;;;;;29.48;4.13;;;;;;;6.39;100.00;98514.50;5024546;28;20034;-84
2022/12/20 01:34:45;;;;;;;30.10;4.55;;;;;;;6.36;100.00;98509.56;5030995;28;20059;-83
2022/12/20 01:37:11;;;;;;;28.88;3.78;;;;;;;6.36;100.00;98512.19;5014889;28;20518;-83
2022/12/20 01:39:37;;;;;;;27.38;3.47;;;;;;;6.33;100.00;98518.59;5020767;28;20029;-84
2022/12/20 01:42:04;;;;;;;22.90;3.92;;;;;;;6.32;100.00;98515.16;5016617;28;20069;-84
2022/12/20 01:44:29;;;;;;;24.77;3.65;;;;;;;6.30;100.00;98519.75;5014819;28;20076;-83
2022/12/20 01:46:55;;;;;;;26.38;3.50;;;;;;;6.26;100.00;98517.63;5006850;28;20041;-83
2022/12/20 01:49:23;;;;;;;18.73;3.97;;;;;;;6.18;100.00;98521.88;5027067;28;20030;-83
2022/12/20 01:51:56;;;;;;;26.50;4.13;;;;;;;6.17;100.00;98517.63;5024564;28;20038;-83
2022/12/20 01:54:28;;;;;;;35.03;4.60;;;;;;;6.15;100.00;98519.59;5031125;28;20095;-83
2022/12/20 01:57:08;;;;;;;19.70;3.15;;;;;;;6.14;100.00;98519.75;5018495;28;20045;-83
2022/12/20 01:59:39;;;;;;;30.23;5.03;;;;;;;6.11;100.00;98522.69;5008800;28;20402;-83
2022/12/20 02:02:09;;;;;;;31.15;3.92;;;;;;;6.06;100.00;98520.56;5037230;28;20495;-83
2022/12/20 02:04:35;;;;;;;19.80;3.88;;;;;;;6.00;100.00;98519.41;5025466;28;20037;-83
2022/12/20 02:07:03;;;;;;;29.73;3.72;;;;;;;5.99;100.00;98517.72;5039224;28;20031;-83
2022/12/20 02:09:32;;;;;;;23.40;3.25;;;;;;;5.96;100.00;98507.56;5012034;28;20332;-83
2022/12/20 02:12:23;;;;;;;22.42;3.45;;;;;;;5.95;100.00;98513.81;5037863;28;20057;-83
2022/12/20 02:14:52;;;;;;;33.75;4.25;;;;;;;5.92;100.00;98514.97;5011315;28;20041;-83
2022/12/20 02:17:36;;;;;;;23.27;4.13;;;;;;;5.92;100.00;98509.72;5020355;28;20029;-83
2022/12/20 02:20:43;;;;;;;30.08;3.65;;;;;;;5.90;100.00;98527.41;5023832;28;20064;-83
2022/12/20 02:23:15;;;;;;;;;;;;;;;5.84;100.00;98522.81;5005000;28;20128;-83
2022/12/20 02:26:05;;;;;;;23.27;2.90;;;;;;;5.88;100.00;98529.34;5043868;28;19913;-83
2022/12/20 02:28:50;;;;;;;24.38;3.78;;;;;;;5.88;100.00;98524.13;5029212;28;20048;-83
2022/12/20 02:31:19;;;;;;;29.60;4.35;;;;;;;5.90;100.00;98531.81;5025554;28;20033;-83
2022/12/20 02:33:47;;;;;;;26.35;4.00;;;;;;;5.89;100.00;98527.56;5019158;28;20156;-83
2022/12/20 02:36:16;;;;;;;41.60;5.93;;;;;;;5.91;100.00;98536.09;5025942;28;20056;-83
2022/12/20 02:38:43;;;;;;;17.73;3.65;;;;;;;5.91;100.00;98536.91;5024709;28;20112;-83
2022/12/20 02:41:19;;;;;;;26.77;4.30;;;;;;;5.92;100.00;98538.56;5025271;28;20598;-83
2022/12/20 02:46:37;;;;;;;31.25;3.80;;;;;;;5.97;100.00;98538.06;5028782;28;20124;-83
2022/12/20 02:49:12;;;;;;;24.08;4.00;;;;;;;5.99;100.00;98541.34;5024962;28;20033;-84
2022/12/20 02:51:43;;;;;;;27.40;3.83;;;;;;;5.98;100.00;98541.50;5038991;28;20025;-83
2022/12/20 02:54:09;;;;;;;30.60;4.53;;;;;;;5.95;100.00;98540.88;5026655;28;20048;-83
2022/12/20 02:56:40;;;;;;;21.08;3.63;;;;;;;5.96;100.00;98549.53;5019059;28;20487;-83
2022/12/20 02:59:20;;;;;;;26.45;4.43;;;;;;;5.94;100.00;98541.03;5027500;28;20041;-83
2022/12/20 03:01:52;;;;;;;27.42;4.07;;;;;;;5.93;100.00;98542.81;5020116;28;20087;-83
2022/12/20 03:04:21;;;;;;;30.80;4.75;;;;;;;5.89;100.00;98540.69;5011151;28;20034;-83
2022/12/20 03:07:08;;;;;;;22.80;4.00;;;;;;;5.86;100.00;98551.50;5035141;28;20429;-83
2022/12/20 03:09:37;;;;;;;21.73;3.33;;;;;;;5.84;100.00;98557.69;5024383;28;20033;-83
2022/12/20 03:12:04;;;;;;;33.38;4.28;;;;;;;5.81;100.00;98559.84;5015969;28;20032;-83
2022/12/20 03:14:33;;;;;;;25.08;3.40;;;;;;;5.79;100.00;98560.00;5027695;28;20152;-83
2022/12/20 03:17:01;;;;;;;24.75;4.03;;;;;;;5.81;100.00;98567.72;5024377;28;20025;-83
2022/12/20 03:19:27;;;;;;;37.17;4.22;;;;;;;5.77;100.00;98564.56;5018835;28;20051;-83
2022/12/20 03:21:53;;;;;;;24.13;3.47;;;;;;;5.75;100.00;98563.91;5021982;28;20044;-83
2022/12/20 03:24:19;;;;;;;27.05;3.78;;;;;;;5.75;100.00;98555.25;5041778;28;20041;-83
2022/12/20 03:26:45;;;;;;;24.70;3.00;;;;;;;5.74;100.00;98558.81;5027529;28;20492;-78
2022/12/20 03:29:11;;;;;;;20.25;3.60;;;;;;;5.71;100.00;98555.56;5026372;28;20080;-78
2022/12/20 03:31:37;;;;;;;33.78;4.30;;;;;;;5.71;100.00;98560.81;5002197;28;20527;-82
2022/12/20 03:34:04;;;;;;;24.23;3.63;;;;;;;5.70;100.00;98567.00;5024399;28;20125;-83
2022/12/20 03:36:29;;;;;;;32.05;4.40;;;;;;;5.69;100.00;98561.91;4987780;28;20041;-78
2022/12/20 03:38:59;;;;;;;27.77;4.43;;;;;;;5.67;100.00;98564.69;5022816;28;20029;-78
2022/12/20 03:41:27;;;;;;;31.73;4.15;;;;;;;5.68;100.00;98562.91;5026979;28;20039;-83
2022/12/20 03:43:53;;;;;;;20.65;3.20;;;;;;;5.67;100.00;98569.94;5019269;28;20022;-83
2022/12/20 03:46:20;;;;;;;15.43;2.95;;;;;;;5.67;100.00;98574.38;5034067;28;20044;-83
2022/12/20 03:48:46;;;;;;;21.10;3.47;;;;;;;5.67;100.00;98587.50;5001601;28;20040;-78
2022/12/20 03:51:12;;;;;;;25.30;3.10;;;;;;;5.70;100.00;98600.28;5041073;28;20029;-78
2022/12/20 03:53:38;;;;;;;18.73;3.05;;;;;;;5.74;100.00;98592.91;5040569;28;20378;-78
2022/12/20 03:56:04;;;;;;;20.50;2.85;;;;;;;5.79;100.00;98599.31;5009898;28;20429;-78
2022/12/20 03:58:30;;;;;;;22.75;4.07;;;;;;;5.85;100.00;98603.09;5034580;28;20072;-83
2022/12/20 04:00:56;;;;;;;29.15;4.75;;;;;;;5.88;100.00;98607.19;5009583;28;20081;-83
2022/12/20 04:03:37;;;;;;;29.55;4.00;;;;;;;5.89;100.00;98601.00;5004700;28;20394;-78
2022/12/20 04:06:03;;;;;;;19.13;2.88;;;;;;;5.92;100.00;98605.91;5020420;28;20107;-78
2022/12/20 04:08:29;;;;;;;33.17;3.95;;;;;;;5.92;100.00;98611.16;5009690;28;20389;-83
2022/12/20 04:13:45;;;;;;;19.83;2.70;;;;;;;5.99;100.00;98620.00;5024069;28;20037;-83
2022/12/20 04:16:14;;;;;;;26.17;3.03;;;;;;;5.99;100.00;98627.09;5022913;28;20478;-83
2022/12/20 04:18:41;;;;;;;27.40;3.67;;;;;;;5.99;100.00;98624.47;5026674;28;20037;-83
2022/12/20 04:21:08;;;;;;;25.92;3.30;;;;;;;5.99;100.00;98613.97;5023801;28;20549;-83
2022/12/20 04:23:39;;;;;;;22.10;3.15;;;;;;;5.99;100.00;98622.63;5026078;28;20440;-83
2022/12/20 04:26:06;;;;;;;19.70;3.17;;;;;;;5.98;100.00;98628.88;5035493;28;20501;-83
2022/12/20 04:28:33;;;;;;;24.13;2.63;;;;;;;5.98;100.00;98636.75;5025029;28;20103;-79
2022/12/20 04:30:59;;;;;;;18.75;2.50;;;;;;;5.93;100.00;98634.59;5021207;28;20084;-78
2022/12/20 04:33:28;;;;;;;21.15;2.67;;;;;;;5.87;100.00;98631.78;5015838;28;20076;-79
2022/12/20 04:35:55;;;;;;;19.13;2.53;;;;;;;5.81;100.00;98620.94;5037904;28;20125;-79
2022/12/20 04:38:22;;;;;;;24.13;3.22;;;;;;;5.78;100.00;98629.13;5027118;28;20083;-83
2022/12/20 04:40:51;;;;;;;15.52;3.28;;;;;;;5.74;100.00;98635.69;5031431;28;20038;-82
2022/12/20 04:43:17;;;;;;;12.70;2.15;;;;;;;5.71;100.00;98625.50;5040084;28;20116;-83
2022/12/20 04:45:47;;;;;;;18.50;3.05;;;;;;;5.71;100.00;98626.34;5019270;28;20049;-83
2022/12/20 04:48:14;;;;;;;21.98;2.50;;;;;;;5.67;100.00;98622.38;5027751;28;20029;-78
2022/12/20 04:50:41;;;;;;;14.20;1.80;;;;;;;5.64;100.00;98616.66;5032187;28;20394;-79
2022/12/20 04:55:54;;;;;;;13.18;2.40;;;;;;;5.56;100.00;98620.84;5029163;28;20064;-82
2022/12/20 04:58:20;;;;;;;20.77;2.15;;;;;;;5.51;100.00;98627.56;5032165;28;20398;-83
2022/12/20 05:00:46;;;;;;;23.60;3.28;;;;;;;5.48;100.00;98622.63;5038713;28;20049;-83
2022/12/20 05:03:23;;;;;;;23.10;2.60;;;;;;;5.44;100.00;98632.59;5018112;28;20064;-83
2022/12/20 05:05:49;;;;;;;16.20;1.83;;;;;;;5.41;100.00;98646.00;5043033;28;20079;-83
2022/12/20 05:08:15;;;;;;;21.95;2.13;;;;;;;5.37;100.00;98631.59;5033306;28;20057;-83
2022/12/20 05:10:42;;;;;;;17.02;2.00;;;;;;;5.30;100.00;98629.56;5035577;28;20059;-83
2022/12/20 05:13:08;;;;;;;13.90;2.10;;;;;;;5.28;100.00;98634.16;5031234;28;20545;-78
2022/12/20 05:15:38;;;;;;;13.65;2.30;;;;;;;5.30;100.00;98636.63;5008773;28;20453;-78
2022/12/20 05:18:05;;;;;;;17.25;2.40;;;;;;;5.27;100.00;98634.31;5026747;28;20033;-78
2022/12/20 05:26:16;;;;;;;18.88;3.15;;;;;;;5.22;100.00;98643.44;5045167;28;20029;-78
2022/12/20 05:26:23;;;;;;;16.08;2.78;;;;;;;5.13;100.00;98656.66;5003045;28;20506;-82
2022/12/20 05:28:50;;;;;;;11.82;1.67;;;;;;;5.13;100.00;98654.84;5008397;28;20103;-83
2022/12/20 05:31:16;;;;;;;8.90;2.00;;;;;;;5.14;100.00;98648.66;5028864;28;20029;-83
2022/12/20 05:33:42;;;;;;;10.25;1.38;;;;;;;5.14;100.00;98658.28;5029464;28;20068;-78
2022/12/20 05:36:08;;;;;;;12.75;1.27;;;;;;;5.17;100.00;98653.56;5029547;28;20478;-78
2022/12/20 05:38:35;;;;;;;11.95;1.42;;;;;;;5.19;100.00;98648.97;5025084;28;20112;-82
2022/12/20 05:41:03;;;;;;;12.68;2.08;;;;;;;5.22;100.00;98640.00;5037149;28;20060;-82
2022/12/20 05:43:29;;;;;;;15.02;2.25;;;;;;;5.25;100.00;98641.50;5045245;28;20422;-78
2022/12/20 05:45:55;;;;;;;11.50;0.90;;;;;;;5.25;100.00;98631.84;5020614;28;20035;-78
2022/12/20 05:48:31;;;;;;;12.05;1.55;;;;;;;5.28;100.00;98636.78;5041095;28;20033;-83
2022/12/20 05:50:56;;;;;;;9.15;1.10;;;;;;;5.29;100.00;98637.56;5029206;28;20402;-83
2022/12/20 05:53:22;;;;;;;9.13;1.33;;;;;;;5.26;100.00;98643.97;5029880;28;20033;-82
2022/12/20 05:55:54;;;;;;;13.13;1.88;;;;;;;5.27;100.00;98634.31;5025801;28;20447;-82
2022/12/20 05:58:24;;;;;;;12.13;1.58;;;;;;;5.22;100.00;98632.94;5040744;28;20124;-83
2022/12/20 06:01:01;;;;;;;10.20;1.08;;;;;;;5.24;100.00;98642.47;5024303;28;20049;-83
2022/12/20 06:03:27;;;;;;;9.70;1.10;;;;;;;5.16;100.00;98659.75;5045240;28;20056;-83
2022/12/20 06:05:54;;;;;;;12.05;1.33;;;;;;;5.13;100.00;98654.03;5028873;28;20087;-83
2022/12/20 06:08:29;;;;;;;12.70;1.90;;;;;;;5.03;100.00;98660.16;5040457;28;20378;-83
2022/12/20 06:10:56;;;;;;;13.38;1.85;;;;;;;4.99;100.00;98658.84;5023513;28;20064;-83
2022/12/20 06:13:23;;;;;;;17.08;2.15;;;;;;;4.95;100.00;98670.59;5038828;28;20075;-84
2022/12/20 06:15:52;;;;;;;12.65;2.70;;;;;;;4.94;100.00;98674.16;5027676;28;20100;-83
2022/12/20 06:18:19;;;;;;;10.10;1.67;;;;;;;4.92;100.00;98674.31;5044531;28;20037;-83
2022/12/20 06:20:50;;;;;;;12.35;2.33;;;;;;;4.92;100.00;98669.09;5044022;28;20029;-83
2022/12/20 06:23:19;;;;;;;13.55;1.75;;;;;;;4.88;100.00;98665.13;5045630;28;20048;-78
2022/12/20 06:25:54;;;;;;;7.47;1.42;;;;;;;4.82;100.00;98668.38;5033651;28;20025;-78
2022/12/20 06:28:21;;;;;;;17.45;2.25;;;;;;;4.84;100.00;98675.09;5002368;28;20060;-78
2022/12/20 06:30:55;;;;;;;13.65;1.67;;;;;;;4.87;100.00;98683.63;5008761;28;20072;-78
2022/12/20 06:33:41;;;;;;;13.80;1.80;;;;;;;4.81;100.00;98685.84;5018046;28;20375;-83
2022/12/20 06:36:08;;;;;;;14.52;1.90;;;;;;;4.81;100.00;98687.66;5032050;28;20036;-83
2022/12/20 06:38:33;;;;;;;9.82;1.60;;;;;;;4.78;100.00;98690.59;5018798;28;20497;-83
2022/12/20 06:40:59;;;;;;;15.68;1.63;;;;;;;4.75;100.00;98696.09;5021433;28;20050;-82
2022/12/20 06:43:25;;;;;;;10.77;1.70;;;;;;;4.70;100.00;98697.38;5026950;28;20529;-83
2022/12/20 06:45:51;;;;;;;9.70;2.25;;;;;;;4.68;100.00;98698.50;5008586;28;20065;-83
2022/12/20 06:48:19;;;;;;;14.43;2.05;;;;;;;4.64;100.00;98707.63;5005269;28;20386;-83
2022/12/20 06:50:49;;;;;;;15.27;1.80;;;;;;;4.64;100.00;98699.75;5043003;28;20037;-82
2022/12/20 06:53:17;;;;;;;12.50;1.90;;;;;;;4.57;100.00;98718.69;5011249;28;20048;-82
2022/12/20 06:55:42;;;;;;;14.20;1.85;;;;;;;4.56;100.00;98703.97;5010146;28;20034;-83
2022/12/20 06:58:09;;;;;;;11.90;1.45;;;;;;;4.57;100.00;98716.06;5025628;28;20474;-83
2022/12/20 07:00:36;;;;;;;16.27;1.60;;;;;;;4.55;100.00;98718.03;5025760;28;20048;-83
2022/12/20 07:03:02;;;;;;;12.00;2.00;;;;;;;4.54;100.00;98729.44;5023646;28;20038;-82
2022/12/20 07:05:28;;;;;;;15.18;1.98;;;;;;;4.53;100.00;98722.56;5019954;28;20033;-83
2022/12/20 07:07:54;;;;;;;12.63;2.40;;;;;;;4.50;100.00;98719.41;5027198;28;20038;-78
2022/12/20 07:10:19;;;;;;;13.85;2.20;;;;;;;4.52;100.00;98726.16;5036928;28;20029;-78
2022/12/20 07:12:45;;;;;;;9.45;1.17;;;;;;;4.52;100.00;98734.03;5027954;28;20025;-82
2022/12/20 07:15:11;;;;;;;8.77;1.60;;;;;;;4.54;100.00;98732.06;5010948;28;20045;-83
2022/12/20 07:17:36;;;;;;;12.90;1.83;;;;;;;4.59;100.00;98723.75;5023664;28;20037;-82
2022/12/20 07:20:02;;;;;;;11.43;1.35;;;;;;;4.60;100.00;98730.66;5042461;28;20045;-83
2022/12/20 07:22:28;;;;;;;17.13;1.80;;;;;;;4.59;100.00;98732.44;5042449;28;20057;-82
2022/12/20 07:24:54;;;;;;;11.00;1.60;;;;;;;4.58;100.00;98730.81;5005458;28;20639;-82
2022/12/20 07:27:20;;;;;;;9.05;1.55;;;;;;;4.54;100.00;98733.88;5015155;28;20040;-83
2022/12/20 07:29:46;;;;;;;9.35;1.58;;;;;;;4.50;100.00;98746.41;5025726;28;20026;-82
2022/12/20 07:32:13;;;;;;;17.92;2.25;;;;;;;4.51;100.00;98758.53;5010243;28;20820;-82
2022/12/20 07:34:39;;;;;;;10.30;1.40;;;;;;;4.50;100.00;98762.13;5017375;28;20041;-82
2022/12/20 07:37:05;;;;;;;10.98;1.70;;;;;;;4.50;100.00;98767.34;5029241;28;20092;-82
2022/12/20 07:39:31;;;;;;;13.07;1.55;;;;;;;4.51;100.00;98769.00;5022222;28;20037;-82
2022/12/20 07:41:57;;;;;;;12.35;1.60;;;;;;;4.54;100.00;98779.16;5027693;28;20048;-82
2022/12/20 07:44:23;;;;;;;14.77;1.63;;;;;;;4.53;100.00;98772.28;5027232;28;20534;-83
2022/12/20 07:46:49;;;;;;;9.52;1.48;;;;;;;4.50;100.00;98769.97;5027062;28;20033;-83
2022/12/20 07:49:14;;;;;;;14.80;1.80;;;;;;;4.44;100.00;98767.94;5023817;28;20050;-84
2022/12/20 07:51:47;;;;;;;14.73;2.08;;;;;;;4.41;100.00;98763.00;5023765;28;20034;-83
2022/12/20 07:54:24;;;;;;;16.27;2.25;;;;;;;4.34;100.00;98760.97;5031495;28;20026;-83
2022/12/20 07:56:56;;;;;;;11.68;1.95;;;;;;;4.28;100.00;98758.94;5001575;28;20512;-83
2022/12/20 07:59:27;;;;;;;7.07;1.35;;;;;;;4.24;100.00;98765.41;5013595;28;20390;-83
2022/12/20 08:01:54;;;;;;;10.73;1.58;;;;;;;4.17;100.00;98767.78;5024906;28;20053;-83
2022/12/20 08:04:25;;;;;;;13.48;1.58;;;;;;;4.19;100.00;98778.91;5041586;28;20037;-82
2022/12/20 08:06:54;;;;;;;10.63;2.35;;;;;;;4.17;100.00;98780.84;5038817;28;20502;-83
2022/12/20 08:09:23;;;;;;;8.27;1.35;;;;;;;4.18;100.00;98774.66;5023611;28;20041;-83
2022/12/20 08:11:50;;;;;;;11.98;2.03;;;;;;;4.14;100.00;98782.94;5036317;28;20021;-83
2022/12/20 08:14:18;;;;;;;14.93;2.13;;;;;;;4.12;100.00;98784.88;5028011;28;20110;-82
2022/12/20 08:16:44;;;;;;;15.88;1.95;;;;;;;4.09;100.00;98780.75;5027260;28;20482;-82
2022/12/20 08:19:09;;;;;;;14.13;1.30;;;;;;;4.13;100.00;98789.97;5028585;28;20033;-82
2022/12/20 08:21:36;;;;;;;11.13;2.33;;;;;;;4.14;100.00;98799.44;5024804;28;20080;-83
2022/12/20 08:24:01;;;;;;;18.58;2.08;;;;;;;4.14;100.00;98796.03;5025497;28;20036;-83
2022/12/20 08:26:27;;;;;;;18.95;1.90;;;;;;;4.17;100.00;98795.72;5030294;28;20029;-82
2022/12/20 08:28:54;;;;;;;8.68;1.60;;;;;;;4.21;100.00;98804.94;5014168;28;20359;-82
2022/12/20 08:31:20;;;;;;;19.55;2.95;;;;;;;4.22;100.00;98812.63;5025817;28;20486;-83
2022/12/20 08:33:46;;;;;;;12.50;2.55;;;;;;;4.24;100.00;98801.22;5023347;28;20410;-83
2022/12/20 08:36:13;;;;;;;16.35;2.33;;;;;;;4.26;100.00;98815.78;5038224;28;20030;-83
2022/12/20 08:38:39;;;;;;;16.15;2.05;;;;;;;4.27;100.00;98808.78;5039290;28;20509;-83
2022/12/20 08:41:11;;;;;;;12.68;1.52;;;;;;;4.30;100.00;98809.28;5029191;28;20537;-83
2022/12/20 08:43:38;;;;;;;10.65;1.92;;;;;;;4.31;100.00;98810.97;5038810;28;20120;-83
2022/12/20 08:46:05;;;;;;;13.63;2.10;;;;;;;4.34;100.00;98809.84;5023946;28;20029;-84
2022/12/20 08:48:32;;;;;;;13.05;2.08;;;;;;;4.34;100.00;98805.44;5023646;28;20508;-83
2022/12/20 08:51:04;;;;;;;15.68;2.63;;;;;;;4.39;100.00;98807.63;5008265;28;20512;-83
2022/12/20 08:53:30;;;;;;;15.85;1.90;;;;;;;4.38;100.00;98815.63;5028466;28;20033;-83
2022/12/20 08:56:05;;;;;;;13.25;1.67;;;;;;;4.42;100.00;98819.56;5025999;28;20041;-84
2022/12/20 08:58:31;;;;;;;13.93;2.20;;;;;;;4.39;100.00;98815.47;5025767;28;20060;-83
2022/12/20 09:00:59;;;;;;;12.30;1.52;;;;;;;4.41;100.00;98825.78;5029114;28;20140;-83
2022/12/20 09:03:30;;;;;;;13.63;1.65;;;;;;;4.45;100.00;98821.91;5042720;28;20040;-83
2022/12/20 09:05:57;;;;;;;10.60;1.80;;;;;;;4.46;100.00;98832.22;5025751;28;20045;-83
2022/12/20 09:08:23;;;;;;;14.88;2.15;;;;;;;4.47;100.00;98827.81;5033184;28;20032;-84
2022/12/20 09:10:48;;;;;;;15.43;1.77;;;;;;;4.50;100.00;98829.31;5027231;28;20033;-83
2022/12/20 09:13:14;;;;;;;17.25;2.60;;;;;;;4.50;100.00;98826.69;5028115;28;20025;-83
2022/12/20 09:15:41;;;;;;;11.75;2.30;;;;;;;4.49;100.00;98831.09;5031213;28;20037;-84
2022/12/20 09:18:07;;;;;;;16.35;1.30;;;;;;;4.49;100.00;98825.06;5033456;28;20057;-83
2022/12/20 09:20:33;;;;;;;14.75;2.10;;;;;;;4.47;100.00;98835.66;5023246;28;20505;-83
2022/12/20 09:22:59;;;;;;;12.93;2.42;;;;;;;4.49;100.00;98831.09;5025211;28;20041;-82
2022/12/20 09:25:26;;;;;;;16.63;2.55;;;;;;;4.50;100.00;98835.38;5030110;28;20101;-83
2022/12/20 09:27:55;;;;;;;18.20;2.30;;;;;;;4.51;100.00;98844.88;5028224;28;20562;-83
2022/12/20 09:30:22;;;;;;;11.50;1.52;;;;;;;4.51;100.00;98834.41;5027576;28;20037;-83
2022/12/20 09:32:48;;;;;;;16.85;2.00;;;;;;;4.53;100.00;98842.09;5024797;28;20022;-84
2022/12/20 09:35:14;;;;;;;14.63;2.08;;;;;;;4.53;100.00;98852.56;5024041;28;20095;-83
2022/12/20 09:37:40;;;;;;;7.65;1.30;;;;;;;4.56;100.00;98852.28;5016992;28;20116;-84
2022/12/20 09:40:16;;;;;;;15.27;1.63;;;;;;;4.61;100.00;98851.84;5028423;28;20031;-83
2022/12/20 09:42:42;;;;;;;15.82;2.42;;;;;;;4.60;100.00;98851.03;5038462;28;20030;-83
2022/12/20 09:45:13;;;;;;;14.50;2.05;;;;;;;4.58;100.00;98851.19;5028071;28;20037;-83
2022/12/20 09:47:40;;;;;;;13.77;2.03;;;;;;;4.57;100.00;98851.34;5027063;28;20465;-83
2022/12/20 09:50:13;;;;;;;14.15;1.73;;;;;;;4.55;100.00;98861.94;5008629;28;20398;-83
2022/12/20 09:52:39;;;;;;;17.50;1.98;;;;;;;4.54;100.00;98868.13;5027626;28;20152;-83
2022/12/20 09:55:34;;;;;;;9.57;1.58;;;;;;;4.56;100.00;98866.19;5024883;28;20497;-83
2022/12/20 09:58:09;;;;;;;11.90;2.67;;;;;;;4.57;100.00;98870.44;5043259;28;20068;-83
2022/12/20 10:00:42;;;;;;;10.85;1.88;;;;;;;4.56;100.00;98876.66;5032923;28;20509;-83
2022/12/20 10:03:17;;;;;;;12.68;1.52;;;;;;;4.57;100.00;98873.06;5023592;28;20442;-84
2022/12/20 10:05:54;;;;;;;13.43;1.50;;;;;;;4.61;100.00;98888.47;5008529;28;20029;-83
2022/12/20 10:08:53;;;;;;;12.25;1.83;;;;;;;4.62;100.00;98880.47;5010061;28;20037;-83
2022/12/20 10:11:41;;;;;;;12.95;2.25;;;;;;;4.66;100.00;98887.09;5007032;28;20420;-83
2022/12/20 10:14:25;;;;;;;15.45;1.83;;;;;;;4.67;100.00;98886.13;5031465;28;20371;-83
2022/12/20 10:16:57;;;;;;;13.25;1.88;;;;;;;4.75;100.00;98885.38;5020623;28;20044;-83
2022/12/20 10:20:02;;;;;;;16.55;2.13;;;;;;;4.80;100.00;98882.34;5019570;28;20045;-83
2022/12/20 10:22:38;;;;;;;14.57;2.38;;;;;;;4.82;100.00;98870.78;5038770;28;20069;-83
2022/12/20 10:25:17;;;;;;;;;;;;;;;4.79;100.00;98871.06;5025669;28;20429;-83
2022/12/20 10:27:45;;;;;;;17.63;2.75;;;;;;;4.89;100.00;98883.28;5024658;28;19919;-82
2022/12/20 10:30:20;;;;;;;19.90;2.55;;;;;;;4.91;100.00;98882.16;5025023;28;20037;-83
2022/12/20 10:32:52;;;;;;;15.43;2.13;;;;;;;4.92;100.00;98886.41;5025245;28;20041;-83
2022/12/20 10:35:21;;;;;;;15.05;3.38;;;;;;;4.97;100.00;98889.41;5038261;28;20029;-83
2022/12/20 10:38:06;;;;;;;20.42;2.67;;;;;;;5.03;100.00;98881.94;5023781;28;20544;-82
2022/12/20 10:40:35;;;;;;;15.23;2.20;;;;;;;5.07;100.00;98891.16;5026712;28;20065;-83
2022/12/20 10:43:03;;;;;;;21.52;4.55;;;;;;;5.12;100.00;98888.91;5019764;28;20026;-83
2022/12/20 10:45:36;;;;;;;20.60;3.40;;;;;;;5.19;100.00;98886.53;5033857;28;20041;-83
2022/12/20 10:48:05;;;;;;;21.02;3.38;;;;;;;5.26;100.00;98898.06;5027760;28;20397;-83
2022/12/20 10:50:32;;;;;;;13.23;2.08;;;;;;;5.33;100.00;98903.53;5022209;28;20025;-82
2022/12/20 10:53:19;;;;;;;26.08;3.08;;;;;;;5.39;100.00;98915.22;5034805;28;20386;-83
2022/12/20 10:55:45;;;;;;;16.75;2.55;;;;;;;5.46;100.00;98916.28;5017635;28;20040;-83
2022/12/20 10:58:29;;;;;;;16.10;2.10;;;;;;;5.56;100.00;98911.78;5023791;28;20386;-82
2022/12/20 11:01:14;;;;;;;22.70;3.22;;;;;;;5.62;100.00;98913.00;5024278;28;20063;-82
2022/12/20 11:04:01;;;;;;;25.15;3.42;;;;;;;5.68;100.00;98917.63;5019284;28;20593;-83
2022/12/20 11:06:36;;;;;;;17.40;3.17;;;;;;;5.73;100.00;98922.41;5021960;28;20041;-83
2022/12/20 11:09:33;;;;;;;18.77;3.25;;;;;;;5.77;100.00;98915.88;5033487;28;20124;-83
2022/12/20 11:12:04;;;;;;;17.33;3.10;;;;;;;5.81;100.00;98925.09;5025630;28;20280;-83
2022/12/20 11:14:32;;;;;;;23.05;3.42;;;;;;;5.88;100.00;98919.25;5025362;28;20037;-83
2022/12/20 11:17:00;;;;;;;16.75;3.13;;;;;;;5.92;100.00;98917.97;5028606;28;20037;-81
2022/12/20 11:19:54;;;;;;;22.40;3.22;;;;;;;5.97;100.00;98918.34;5011646;28;20038;-82
2022/12/20 11:22:29;;;;;;;15.38;2.75;;;;;;;6.03;100.00;98912.50;5026802;28;20107;-82
2022/12/20 11:25:18;;;;;;;16.35;3.42;;;;;;;6.04;100.00;98910.69;5027559;28;20478;-82
2022/12/20 11:28:05;;;;;;;15.15;2.03;;;;;;;6.08;100.00;98912.88;5039623;28;20033;-82
2022/12/20 11:30:49;;;;;;;17.75;3.13;;;;;;;6.13;100.00;98903.72;5021745;28;20075;-82
2022/12/20 11:33:41;;;;;;;13.35;2.67;;;;;;;6.16;100.00;98904.22;5034877;28;20127;-81
2022/12/20 11:36:09;;;;;;;14.85;2.75;;;;;;;6.20;100.00;98900.34;5039591;28;20090;-82
2022/12/20 11:38:44;;;;;;;20.90;3.00;;;;;;;6.24;100.00;98897.41;5024764;28;20045;-83
2022/12/20 11:41:28;;;;;;;18.15;2.92;;;;;;;6.29;100.00;98901.19;5024946;28;20065;-82
2022/12/20 11:44:12;;;;;;;17.83;2.80;;;;;;;6.31;100.00;98911.53;5017994;28;20445;-81
2022/12/20 11:46:44;;;;;;;11.98;3.08;;;;;;;6.39;100.00;98900.28;5032937;28;20059;-84
2022/12/20 11:49:16;;;;;;;14.02;2.83;;;;;;;6.37;100.00;98897.78;5024377;28;20046;-84
2022/12/20 11:51:58;;;;;;;15.57;2.22;;;;;;;6.49;100.00;98905.41;5009355;28;20040;-84